Hlavní strana
METAR-TAF:

METAR-TAF

Letiště :

Letiště Managua

Managua, Nikaragua

zeměpisná šířka: 12-09N, zeměpisná délka: 086-10W, výška: 50 m

Aktuální stav počasí

Zpráva byla vytvořena před 49 minutami, v 17:00 UTC
Východní vítr 18 kt
Teplota 30°C
Vlhkost vzduchu 49%
Tlak 1014 hPa
Viditelnost 10 km a více
Oblačno až skoro zataženo ve výšce 2500 ft

METAR: MNMG 181700Z 08018KT 9999 BKN025 30/18 Q1013 A2993 NOSIG

Čas: 11:49 (17:49 UTC)

Předpověď počasí

Zpráva byla vytvořena před 2 hodinami a 54 minutami, v 14:55 UTC
Předpověď platná od 18 v 18 UTC do 19 v 18 UTC
Východní vítr 16 kt s nárazy do 30 kt
Viditelnost 10 km a více
Polojasno ve výšce 2000 ft
Změna
od 19 v 03 UTC do 19 v 05 UTC
Východojihovýchodní vítr 12 kt
Skoro jasno ve výšce 2000 ft

TAF: MNMG 181455Z 1818/1918 09016G30KT 9999 SCT020 BECMG 1903/1905 12012KT FEW020

Stav a předpovědi počasí z více než 4 000 letišť (zprávy METAR a TAF).

Červené a žluté tečky na mapě představují dostupné meteorologické stanice.

Když kurzor umístíte na tečku, zobrazí se název stanice.

Pak kliknutím zobrazíte stav a předpověď počasí.

Chcete-li změnit mapu, kliknutím na zelené tlačítko se znaménkem +mapu přiblížíte, kliknutím na zelené tlačítko se znaménkem – mapu oddálíte a kliknutím na zelené šipky přejdete na sousední mapy.


METAR-TAF: